Time;durP1;ratioP1;P1;durP2;ratioP2;P2;SDS_P1;SDS_P2;PMS_P1;PMS_P2;Temp;Humidity;BMP_temperature;BMP_pressure;BME280_temperature;BME280_humidity;BME280_pressure;Samples;Min_cycle;Max_cycle;Signal;HPM_P1;HPM_P2
2022/11/28 00:00:54;;;;;;;20.93;10.73;;;;;;;4.30;100.00;100909.84;6194487;28;20092;-77
2022/11/28 00:03:55;;;;;;;21.23;10.77;;;;;;;4.26;100.00;100908.19;6195642;28;20784;-77
2022/11/28 00:06:56;;;;;;;19.73;10.75;;;;;;;4.29;100.00;100904.72;6195750;28;20038;-77
2022/11/28 00:09:56;;;;;;;27.73;11.25;;;;;;;4.37;100.00;100911.41;6194374;28;20038;-77
2022/11/28 00:12:57;;;;;;;21.45;10.52;;;;;;;4.39;100.00;100913.97;6194481;28;20100;-77
2022/11/28 00:16:00;;;;;;;23.52;10.77;;;;;;;4.27;100.00;100912.50;6195399;28;20121;-77
2022/11/28 00:19:03;;;;;;;19.80;9.75;;;;;;;4.27;100.00;100919.41;6178002;28;20081;-77
2022/11/28 00:22:03;;;;;;;20.38;11.00;;;;;;;4.32;100.00;100914.97;6194313;28;20482;-77
2022/11/28 00:25:04;;;;;;;23.00;10.52;;;;;;;4.37;100.00;100915.75;6195560;28;20096;-77
2022/11/28 00:28:05;;;;;;;30.13;12.23;;;;;;;4.38;100.00;100920.84;6279005;28;20403;-77
2022/11/28 00:31:28;;;;;;;25.65;11.05;;;;;;;4.40;100.00;100928.59;6193950;28;20046;-77
2022/11/28 00:34:29;;;;;;;25.15;11.75;;;;;;;4.37;100.00;100926.09;6195114;28;20073;-77
2022/11/28 00:37:30;;;;;;;25.38;9.93;;;;;;;4.37;100.00;100931.25;6193999;28;20042;-77
2022/11/28 00:40:32;;;;;;;20.48;11.00;;;;;;;4.33;100.00;100924.44;6193740;28;20401;-77
2022/11/28 00:43:33;;;;;;;24.05;12.20;;;;;;;4.37;100.00;100932.09;6194882;28;20042;-77
2022/11/28 00:46:34;;;;;;;27.65;12.05;;;;;;;4.27;100.00;100934.91;6194947;28;20042;-77
2022/11/28 00:49:34;;;;;;;31.77;11.25;;;;;;;4.12;100.00;100938.63;6278970;28;20578;-77
2022/11/28 00:52:36;;;;;;;20.15;9.43;;;;;;;4.19;100.00;100935.91;6193894;28;20097;-77
2022/11/28 00:55:40;;;;;;;19.15;10.02;;;;;;;4.25;100.00;100934.94;6177438;28;20506;-77
2022/11/28 00:58:41;;;;;;;25.40;11.10;;;;;;;4.27;100.00;100938.34;6193515;28;20100;-77
2022/11/28 01:01:42;;;;;;;19.77;9.35;;;;;;;4.36;100.00;100927.78;6194405;28;20062;-77
2022/11/28 01:04:43;;;;;;;20.23;10.82;;;;;;;4.26;100.00;100921.13;6295145;28;20042;-77
2022/11/28 01:07:44;;;;;;;20.10;9.43;;;;;;;4.28;100.00;100915.94;6177105;28;20054;-77
2022/11/28 01:10:45;;;;;;;18.42;10.30;;;;;;;4.21;100.00;100910.03;6193206;28;20070;-77
2022/11/28 01:13:45;;;;;;;16.73;6.97;;;;;;;3.90;100.00;100907.25;6193268;28;20086;-77
2022/11/28 01:16:46;;;;;;;17.75;8.70;;;;;;;3.85;100.00;100904.75;6194348;28;20038;-77
2022/11/28 01:19:47;;;;;;;14.57;7.88;;;;;;;3.84;100.00;100903.88;6193265;28;20051;-77
2022/11/28 01:22:48;;;;;;;15.70;8.98;;;;;;;3.90;100.00;100897.75;6193049;28;20547;-77
2022/11/28 01:25:48;;;;;;;17.27;8.63;;;;;;;4.01;100.00;100894.94;6193096;28;20039;-77
2022/11/28 01:28:49;;;;;;;19.35;9.57;;;;;;;3.88;100.00;100888.34;6194156;28;20066;-77
2022/11/28 01:31:50;;;;;;;23.50;9.15;;;;;;;3.73;100.00;100882.59;6194167;28;20045;-77
2022/11/28 01:34:51;;;;;;;16.27;9.70;;;;;;;3.80;100.00;100876.44;6194204;28;20050;-77
2022/11/28 01:37:52;;;;;;;19.20;8.43;;;;;;;3.80;100.00;100871.25;6194013;28;20080;-77
2022/11/28 01:40:53;;;;;;;13.90;8.18;;;;;;;3.81;100.00;100865.25;6194044;28;20057;-77
2022/11/28 01:44:05;;;;;;;18.70;8.05;;;;;;;3.83;100.00;100858.31;6192942;28;20038;-77
2022/11/28 01:47:05;;;;;;;15.13;8.57;;;;;;;3.79;100.00;100867.00;6193992;28;20050;-77
2022/11/28 01:50:07;;;;;;;17.83;9.57;;;;;;;3.73;100.00;100861.97;6192731;28;20039;-77
2022/11/28 01:53:10;;;;;;;20.03;9.03;;;;;;;3.71;100.00;100852.56;6193951;28;20513;-74
2022/11/28 01:56:24;;;;;;;18.75;8.30;;;;;;;3.73;100.00;100848.22;6314368;28;20279;-74
2022/11/28 01:59:29;;;;;;;19.95;10.07;;;;;;;3.71;100.00;100857.72;6217929;28;20038;-74
2022/11/28 02:03:02;;;;;;;22.80;8.23;;;;;;;3.69;100.00;100850.00;6216460;28;20050;-74
2022/11/28 02:06:03;;;;;;;17.42;8.70;;;;;;;3.72;100.00;100841.34;6208175;28;20057;-74
2022/11/28 02:09:08;;;;;;;10.63;6.97;;;;;;;3.61;100.00;100846.72;6221942;28;20038;-74
2022/11/28 02:12:26;;;;;;;19.63;7.10;;;;;;;3.56;100.00;100851.09;6222478;28;20045;-74
2022/11/28 02:15:42;;;;;;;16.05;7.07;;;;;;;3.62;100.00;100838.94;6204440;28;20076;-74
2022/11/28 02:19:02;;;;;;;17.60;8.10;;;;;;;3.60;100.00;100837.25;6220489;28;20497;-74
2022/11/28 02:22:16;;;;;;;16.15;7.85;;;;;;;3.52;100.00;100836.56;6220648;28;20409;-73
2022/11/28 02:25:19;;;;;;;20.05;9.05;;;;;;;3.44;100.00;100834.16;6221730;28;20550;-74
2022/11/28 02:28:23;;;;;;;15.48;8.30;;;;;;;3.47;100.00;100834.06;6220660;28;20042;-77
2022/11/28 02:31:54;;;;;;;18.75;8.52;;;;;;;3.57;100.00;100834.75;6220369;28;20512;-77
2022/11/28 02:35:07;;;;;;;14.05;7.72;;;;;;;3.50;100.00;100830.56;6221625;28;20046;-77
2022/11/28 02:38:15;;;;;;;;;;;;;;;3.56;100.00;100833.03;6220854;28;20099;-77
2022/11/28 02:41:36;;;;;;;13.25;7.85;;;;;;;3.53;100.00;100827.94;6221510;28;19922;-77
2022/11/28 02:44:43;;;;;;;15.38;7.22;;;;;;;3.54;100.00;100832.22;6220280;28;20050;-78
2022/11/28 02:47:49;;;;;;;26.73;10.75;;;;;;;3.46;100.00;100832.38;6220497;28;20478;-77
2022/11/28 02:51:05;;;;;;;23.27;8.90;;;;;;;3.53;100.00;100840.84;6221600;28;20177;-77
2022/11/28 02:54:10;;;;;;;18.90;9.20;;;;;;;3.53;100.00;100833.09;6220175;28;20399;-77
2022/11/28 02:57:10;;;;;;;26.63;11.10;;;;;;;3.37;100.00;100828.22;6220136;28;20069;-77
2022/11/28 03:00:28;;;;;;;18.60;7.90;;;;;;;3.44;100.00;100828.97;6219905;28;20053;-77
2022/11/28 03:03:42;;;;;;;14.63;7.57;;;;;;;3.41;100.00;100824.72;6220957;28;20487;-77
2022/11/28 03:06:49;;;;;;;18.15;9.55;;;;;;;3.48;100.00;100835.78;6219937;28;20069;-77
2022/11/28 03:10:02;;;;;;;15.15;8.30;;;;;;;3.41;100.00;100827.28;6221012;28;20049;-77
2022/11/28 03:13:36;;;;;;;22.85;10.48;;;;;;;3.53;100.00;100828.78;6219660;28;20402;-77
2022/11/28 03:16:55;;;;;;;17.10;8.88;;;;;;;3.50;100.00;100826.28;6219786;28;20053;-77
2022/11/28 03:20:15;;;;;;;14.73;8.25;;;;;;;3.49;100.00;100828.88;6219624;28;20101;-77
2022/11/28 03:23:38;;;;;;;24.67;8.90;;;;;;;3.48;100.00;100825.47;6219436;28;20052;-77
2022/11/28 03:26:45;;;;;;;20.58;9.55;;;;;;;3.51;100.00;100833.13;6219530;28;20057;-77
2022/11/28 03:29:52;;;;;;;21.02;8.45;;;;;;;3.37;100.00;100829.97;6202885;28;20052;-77
2022/11/28 03:32:56;;;;;;;24.33;8.85;;;;;;;3.40;100.00;100822.19;6220761;28;20042;-77
2022/11/28 03:36:13;;;;;;;17.63;10.73;;;;;;;3.53;100.00;100815.88;6219359;28;20509;-77
2022/11/28 03:39:19;;;;;;;24.05;10.57;;;;;;;3.57;100.00;100819.25;6220486;28;20042;-77
2022/11/28 03:42:23;;;;;;;17.67;9.80;;;;;;;3.53;100.00;100826.22;6220280;28;20042;-77
2022/11/28 03:45:27;;;;;;;25.20;10.40;;;;;;;3.54;100.00;100816.72;6220709;28;20046;-77
2022/11/28 03:48:38;;;;;;;22.02;8.55;;;;;;;3.56;100.00;100810.69;6218914;28;20050;-74
2022/11/28 03:51:52;;;;;;;28.92;11.80;;;;;;;3.60;100.00;100824.34;6219328;28;20030;-73
2022/11/28 03:55:12;;;;;;;22.23;8.60;;;;;;;3.55;100.00;100821.03;6220160;28;20042;-75
2022/11/28 03:58:28;;;;;;;18.67;9.25;;;;;;;3.60;100.00;100814.91;6219117;28;20073;-74
2022/11/28 04:01:52;;;;;;;23.90;10.77;;;;;;;3.61;100.00;100808.84;6218540;28;20064;-74
2022/11/28 04:05:16;;;;;;;23.10;9.43;;;;;;;3.58;100.00;100806.34;6219902;28;20038;-74
2022/11/28 04:08:20;;;;;;;19.15;9.15;;;;;;;3.59;100.00;100800.28;6219803;28;20069;-74
2022/11/28 04:11:32;;;;;;;21.92;9.80;;;;;;;3.47;100.00;100805.69;6219596;28;20057;-75
2022/11/28 04:14:52;;;;;;;20.80;8.52;;;;;;;3.48;100.00;100796.22;6219722;28;20409;-74
2022/11/28 04:18:04;;;;;;;17.70;8.60;;;;;;;3.33;100.00;100790.47;6218445;28;20045;-74
2022/11/28 04:21:11;;;;;;;17.75;7.82;;;;;;;3.35;100.00;100790.44;6218506;28;20409;-74
2022/11/28 04:24:19;;;;;;;21.20;9.75;;;;;;;3.32;100.00;100782.78;6218208;28;20053;-74
2022/11/28 04:27:29;;;;;;;22.80;10.20;;;;;;;3.36;100.00;100777.53;6218340;28;20042;-74
2022/11/28 04:30:31;;;;;;;23.55;8.38;;;;;;;3.36;100.00;100785.25;6217785;28;20072;-73
2022/11/28 04:33:36;;;;;;;21.15;7.97;;;;;;;3.39;100.00;100784.34;6218207;28;20057;-74
2022/11/28 04:36:39;;;;;;;21.20;8.38;;;;;;;3.48;100.00;100791.91;6201646;28;20061;-74
2022/11/28 04:39:43;;;;;;;14.00;7.38;;;;;;;3.43;100.00;100786.00;6201965;28;20057;-74
2022/11/28 04:42:50;;;;;;;14.10;7.88;;;;;;;3.31;100.00;100776.75;6217824;28;20155;-75
2022/11/28 04:46:09;;;;;;;16.48;8.48;;;;;;;3.35;100.00;100780.13;6219138;28;20045;-75
2022/11/28 04:49:11;;;;;;;25.35;7.13;;;;;;;3.26;100.00;100782.91;6217804;28;20042;-74
2022/11/28 04:52:16;;;;;;;17.27;7.65;;;;;;;3.27;100.00;100790.59;6217790;28;20041;-75
2022/11/28 04:55:27;;;;;;;13.50;7.95;;;;;;;3.27;100.00;100792.31;6201348;28;20073;-74
2022/11/28 04:58:39;;;;;;;15.43;7.40;;;;;;;3.20;100.00;100782.13;6217720;28;20053;-74
2022/11/28 05:01:44;;;;;;;22.88;8.48;;;;;;;3.24;100.00;100788.09;6218670;28;20553;-74
2022/11/28 05:04:46;;;;;;;18.20;8.18;;;;;;;3.22;100.00;100795.84;6217458;28;20098;-74
2022/11/28 05:07:47;;;;;;;17.00;7.60;;;;;;;3.20;100.00;100783.84;6217556;28;20486;-74
2022/11/28 05:10:50;;;;;;;14.57;7.60;;;;;;;3.11;100.00;100781.44;6217496;28;20280;-75
2022/11/28 05:13:52;;;;;;;26.27;7.43;;;;;;;3.17;100.00;100792.50;6217263;28;20057;-75
2022/11/28 05:16:52;;;;;;;12.70;6.75;;;;;;;3.15;100.00;100789.13;6217501;28;20132;-74
2022/11/28 05:19:53;;;;;;;17.38;9.27;;;;;;;3.20;100.00;100783.84;6218563;28;20505;-74
2022/11/28 05:22:54;;;;;;;16.27;9.15;;;;;;;3.22;100.00;100793.25;6217424;28;20385;-74
2022/11/28 05:25:54;;;;;;;16.10;7.70;;;;;;;3.26;100.00;100786.31;6200906;28;20132;-74
2022/11/28 05:28:55;;;;;;;16.10;8.30;;;;;;;3.15;100.00;100778.78;6217143;28;20038;-74
2022/11/28 05:31:58;;;;;;;16.25;7.90;;;;;;;3.20;100.00;100779.53;6217280;28;20045;-74
2022/11/28 05:34:59;;;;;;;19.77;7.60;;;;;;;3.19;100.00;100777.84;6216996;28;20478;-74
2022/11/28 05:38:00;;;;;;;21.95;7.60;;;;;;;3.18;100.00;100777.88;6218340;28;20049;-74
2022/11/28 05:41:01;;;;;;;17.92;8.02;;;;;;;3.20;100.00;100783.84;6218250;28;20046;-74
2022/11/28 05:44:02;;;;;;;15.43;7.22;;;;;;;3.27;100.00;100782.00;6204774;28;20054;-74
2022/11/28 05:47:03;;;;;;;11.27;7.05;;;;;;;3.25;100.00;100781.19;6222584;28;20042;-74
2022/11/28 05:50:06;;;;;;;16.90;8.25;;;;;;;3.20;100.00;100776.13;6221292;28;20099;-74
2022/11/28 05:53:09;;;;;;;19.38;7.50;;;;;;;3.31;100.00;100776.75;6221285;28;20077;-74
2022/11/28 05:56:12;;;;;;;18.43;8.73;;;;;;;3.23;100.00;100776.03;6220155;28;20034;-73
2022/11/28 05:59:13;;;;;;;16.80;6.45;;;;;;;3.16;100.00;100785.63;6205176;28;20271;-73
2022/11/28 06:02:14;;;;;;;15.98;6.82;;;;;;;3.19;100.00;100777.84;6217988;28;20074;-73
2022/11/28 06:05:15;;;;;;;15.50;6.90;;;;;;;3.26;100.00;100782.91;6220943;28;20056;-73
2022/11/28 06:08:16;;;;;;;20.10;8.00;;;;;;;3.27;100.00;100776.84;6308704;27;20082;-73
2022/11/28 06:11:17;;;;;;;14.77;6.75;;;;;;;3.32;100.00;100775.88;6196687;28;20413;-74
2022/11/28 06:14:18;;;;;;;19.00;7.82;;;;;;;3.32;100.00;100775.88;6196586;28;20050;-74
2022/11/28 06:17:18;;;;;;;14.68;8.45;;;;;;;3.43;100.00;100770.50;6196508;28;20046;-73
2022/11/28 06:20:22;;;;;;;20.15;8.32;;;;;;;3.34;100.00;100776.72;6196708;28;20086;-74
2022/11/28 06:23:25;;;;;;;19.30;9.07;;;;;;;3.45;100.00;100780.81;6220306;28;20054;-73
2022/11/28 06:26:27;;;;;;;14.40;8.38;;;;;;;3.52;100.00;100779.78;6217725;28;20048;-73
2022/11/28 06:29:28;;;;;;;24.67;8.88;;;;;;;3.57;100.00;100786.56;6208856;28;20546;-74
2022/11/28 06:32:28;;;;;;;17.83;8.10;;;;;;;3.45;100.00;100775.66;6204846;28;20042;-73
2022/11/28 06:35:29;;;;;;;19.88;9.60;;;;;;;3.45;100.00;100775.66;6219497;28;20066;-74
2022/11/28 06:38:31;;;;;;;21.48;9.93;;;;;;;3.56;100.00;100773.69;6205835;28;20046;-73
2022/11/28 06:41:32;;;;;;;25.58;10.10;;;;;;;3.56;100.00;100782.28;6219284;28;20038;-74
2022/11/28 06:44:32;;;;;;;18.33;9.10;;;;;;;3.62;100.00;100770.97;6202726;28;20053;-73
2022/11/28 06:47:33;;;;;;;27.20;10.45;;;;;;;3.72;100.00;100777.66;6219365;28;20041;-74
2022/11/28 06:50:34;;;;;;;14.43;8.00;;;;;;;3.56;100.00;100777.13;6219274;28;20046;-74
2022/11/28 06:53:35;;;;;;;24.17;8.20;;;;;;;3.63;100.00;100772.69;6220428;28;20046;-74
2022/11/28 06:56:36;;;;;;;32.22;10.23;;;;;;;3.57;100.00;100770.25;6219657;28;20042;-73
2022/11/28 06:59:36;;;;;;;28.27;8.32;;;;;;;3.63;100.00;100767.53;6219981;28;20050;-73
2022/11/28 07:02:38;;;;;;;20.03;9.00;;;;;;;3.62;100.00;100756.38;6219414;28;20057;-74
2022/11/28 07:05:39;;;;;;;24.20;8.20;;;;;;;3.55;100.00;100759.09;6220675;28;20050;-73
2022/11/28 07:08:41;;;;;;;18.77;9.88;;;;;;;3.72;100.00;100758.72;6220677;28;20124;-73
2022/11/28 07:11:44;;;;;;;20.53;7.20;;;;;;;3.76;100.00;100757.78;6219479;28;20052;-74
2022/11/28 07:14:45;;;;;;;18.85;8.77;;;;;;;3.81;100.00;100761.97;6219344;28;20283;-73
2022/11/28 07:17:46;;;;;;;44.53;11.45;;;;;;;3.87;100.00;100760.13;6219433;28;20042;-74
2022/11/28 07:20:50;;;;;;;24.98;10.02;;;;;;;3.81;100.00;100755.97;6219340;28;20042;-74
2022/11/28 07:23:51;;;;;;;19.38;7.10;;;;;;;3.81;100.00;100750.81;6304841;28;20072;-74
2022/11/28 07:26:51;;;;;;;27.88;9.95;;;;;;;3.64;100.00;100751.16;6220414;28;20498;-74
2022/11/28 07:29:53;;;;;;;21.20;9.25;;;;;;;3.87;100.00;100757.53;6220370;28;20417;-74
2022/11/28 07:32:58;;;;;;;23.25;8.30;;;;;;;3.89;100.00;100755.78;6305452;28;20073;-74
2022/11/28 07:36:21;;;;;;;28.98;10.00;;;;;;;3.97;100.00;100759.88;6218871;28;20543;-77
2022/11/28 07:39:24;;;;;;;21.65;7.88;;;;;;;4.07;100.00;100755.38;6219286;28;20265;-77
2022/11/28 07:42:26;;;;;;;27.77;9.88;;;;;;;4.09;100.00;100757.91;6304776;28;20050;-77
2022/11/28 07:45:27;;;;;;;22.85;10.02;;;;;;;3.95;100.00;100753.91;6220010;28;20128;-77
2022/11/28 07:48:30;;;;;;;25.50;10.63;;;;;;;4.01;100.00;100738.25;6219987;28;20052;-78
2022/11/28 07:51:32;;;;;;;21.85;9.60;;;;;;;4.22;100.00;100751.56;6220050;28;20287;-77
2022/11/28 07:54:33;;;;;;;29.55;10.82;;;;;;;4.22;100.00;100749.00;6219915;28;20053;-78
2022/11/28 07:57:34;;;;;;;20.25;8.95;;;;;;;4.39;100.00;100758.94;6202202;28;20050;-77
2022/11/28 08:00:36;;;;;;;17.63;9.43;;;;;;;4.39;100.00;100753.78;6218383;28;20414;-77
2022/11/28 08:03:39;;;;;;;23.95;9.80;;;;;;;4.50;100.00;100753.50;6321410;27;20061;-78
2022/11/28 08:06:42;;;;;;;18.55;8.05;;;;;;;4.51;100.00;100755.19;6321027;27;20422;-77
2022/11/28 08:09:43;;;;;;;;;;;;;;;4.60;100.00;100762.72;6218953;28;20046;-77
2022/11/28 08:12:44;;;;;;;16.38;7.55;;;;;;;4.60;100.00;100765.31;6201903;28;19944;-78
2022/11/28 08:15:45;;;;;;;19.98;8.15;;;;;;;4.62;100.00;100755.78;6218279;28;20052;-77
2022/11/28 08:18:47;;;;;;;21.45;10.70;;;;;;;4.73;100.00;100764.09;6304437;28;20057;-78
2022/11/28 08:21:47;;;;;;;23.48;11.45;;;;;;;4.82;100.00;100766.47;6218142;28;20574;-77
2022/11/28 08:24:48;;;;;;;16.10;8.65;;;;;;;4.76;100.00;100770.94;6219262;28;20046;-78
2022/11/28 08:27:49;;;;;;;27.52;10.80;;;;;;;4.65;100.00;100776.38;6218059;28;20050;-78
2022/11/28 08:30:52;;;;;;;28.02;12.02;;;;;;;4.80;100.00;100768.25;6219166;28;20470;-74
2022/11/28 08:33:57;;;;;;;29.65;12.48;;;;;;;4.65;100.00;100758.28;6219084;28;20054;-74
2022/11/28 08:36:58;;;;;;;22.40;11.75;;;;;;;4.64;100.00;100772.09;6216082;28;20089;-74
2022/11/28 08:40:01;;;;;;;22.27;11.90;;;;;;;4.73;100.00;100771.84;6200524;28;20038;-74
2022/11/28 08:43:03;;;;;;;26.00;12.32;;;;;;;4.57;100.00;100775.72;6208213;28;20401;-74
2022/11/28 08:46:05;;;;;;;24.13;11.60;;;;;;;4.64;100.00;100766.94;6299640;27;20042;-74
2022/11/28 08:49:06;;;;;;;34.15;16.83;;;;;;;4.69;100.00;100761.63;6196932;28;20490;-74
2022/11/28 08:52:07;;;;;;;25.88;12.18;;;;;;;4.70;100.00;100774.53;6217699;28;20110;-74
2022/11/28 08:55:08;;;;;;;24.25;11.10;;;;;;;4.68;100.00;100773.72;6218785;28;20254;-74
2022/11/28 08:58:13;;;;;;;31.00;11.07;;;;;;;4.66;100.00;100782.41;6217698;28;20042;-74
2022/11/28 09:01:18;;;;;;;31.75;11.32;;;;;;;4.59;100.00;100785.16;6218498;28;20058;-74
2022/11/28 09:04:20;;;;;;;24.40;9.18;;;;;;;4.68;100.00;100778.06;6217571;28;20046;-77
2022/11/28 09:07:21;;;;;;;31.90;12.38;;;;;;;4.69;100.00;100779.72;6217407;28;20052;-74
2022/11/28 09:10:24;;;;;;;;;;;;;;;4.80;100.00;100791.50;6217928;28;20038;-74
2022/11/28 09:13:24;;;;;;;14.25;7.95;;;;;;;4.75;100.00;100777.84;6217323;28;19945;-74
2022/11/28 09:16:25;;;;;;;23.50;9.27;;;;;;;4.75;100.00;100782.16;6218434;28;20053;-74
2022/11/28 09:19:26;;;;;;;20.48;9.35;;;;;;;4.90;100.00;100771.44;6217290;28;20455;-74
2022/11/28 09:22:28;;;;;;;17.88;9.32;;;;;;;5.11;100.00;100771.78;6217250;28;20049;-78
2022/11/28 09:25:29;;;;;;;17.20;9.60;;;;;;;5.03;100.00;100771.97;6217045;28;20053;-77
2022/11/28 09:28:30;;;;;;;27.23;9.40;;;;;;;5.01;100.00;100773.75;6218427;28;20068;-78
2022/11/28 09:31:31;;;;;;;20.52;10.52;;;;;;;4.98;100.00;100768.63;6218383;28;20502;-74
2022/11/28 09:34:32;;;;;;;30.70;10.45;;;;;;;4.95;100.00;100763.56;6217007;28;20042;-77
2022/11/28 09:37:32;;;;;;;33.17;11.02;;;;;;;5.09;100.00;100765.78;6211665;28;20053;-74
2022/11/28 09:40:40;;;;;;;26.08;12.10;;;;;;;5.11;100.00;100758.84;6192753;28;20081;-74
2022/11/28 09:43:43;;;;;;;28.77;12.10;;;;;;;5.03;100.00;100754.69;6197749;28;20052;-77
2022/11/28 09:46:46;;;;;;;23.88;11.15;;;;;;;4.98;100.00;100753.13;6216917;28;20505;-78
2022/11/28 09:49:56;;;;;;;27.25;11.90;;;;;;;4.98;100.00;100755.72;6216713;28;20050;-75
2022/11/28 09:53:00;;;;;;;26.85;12.13;;;;;;;5.10;100.00;100754.53;6216698;28;20077;-74
2022/11/28 09:56:14;;;;;;;34.30;12.18;;;;;;;5.12;100.00;100751.00;6217951;28;20494;-78
2022/11/28 09:59:18;;;;;;;23.75;9.85;;;;;;;5.33;100.00;100746.13;6216626;28;20094;-77
2022/11/28 10:02:26;;;;;;;22.85;10.05;;;;;;;5.37;100.00;100738.22;6217682;28;20498;-77
2022/11/28 10:05:53;;;;;;;23.75;12.70;;;;;;;5.41;100.00;100736.41;6217667;28;20065;-77
2022/11/28 10:09:17;;;;;;;22.90;11.30;;;;;;;5.44;100.00;100733.75;6216730;28;20124;-77
2022/11/28 10:12:26;;;;;;;19.08;10.68;;;;;;;5.44;100.00;100733.75;6200122;28;20459;-77
2022/11/28 10:15:29;;;;;;;35.85;12.45;;;;;;;5.47;100.00;100737.97;6216441;28;20038;-77
2022/11/28 10:18:49;;;;;;;22.58;11.13;;;;;;;5.35;100.00;100731.41;6200018;28;20430;-74
2022/11/28 10:21:56;;;;;;;27.52;12.35;;;;;;;5.36;100.00;100726.19;6217600;28;20121;-73
2022/11/28 10:25:09;;;;;;;21.60;11.48;;;;;;;5.44;100.00;100734.59;6217464;28;20046;-74
2022/11/28 10:28:36;;;;;;;25.48;12.15;;;;;;;5.55;100.00;100728.25;6217649;28;20498;-77
2022/11/28 10:31:43;;;;;;;24.52;11.65;;;;;;;5.61;100.00;100730.66;6222703;28;20085;-77
2022/11/28 10:34:55;;;;;;;28.85;12.85;;;;;;;5.57;100.00;100726.47;6221490;28;20038;-77
2022/11/28 10:37:55;;;;;;;39.40;14.95;;;;;;;5.54;100.00;100722.22;6221467;28;20077;-78
2022/11/28 10:41:05;;;;;;;30.95;13.07;;;;;;;5.46;100.00;100719.03;6221361;28;20041;-74
2022/11/28 10:44:26;;;;;;;33.97;14.48;;;;;;;5.50;100.00;100719.75;6220051;28;20478;-74
2022/11/28 10:48:04;;;;;;;21.50;10.32;;;;;;;5.70;100.00;100717.44;6211489;28;20128;-73
2022/11/28 10:51:12;;;;;;;26.33;11.55;;;;;;;5.92;100.00;100711.59;6192613;28;20058;-74
2022/11/28 10:54:29;;;;;;;19.73;10.18;;;;;;;5.99;100.00;100703.63;6195370;28;20107;-74
2022/11/28 10:58:03;;;;;;;21.48;10.35;;;;;;;6.09;100.00;100711.94;6195720;28;20483;-73
2022/11/28 11:01:03;;;;;;;29.67;12.55;;;;;;;5.96;100.00;100700.28;6299163;28;20050;-74
2022/11/28 11:04:05;;;;;;;28.02;13.68;;;;;;;6.00;100.00;100704.47;6209778;28;20462;-74
2022/11/28 11:07:42;;;;;;;27.70;13.98;;;;;;;5.87;100.00;100706.56;6207501;28;20057;-74
2022/11/28 11:11:19;;;;;;;24.42;12.60;;;;;;;5.81;100.00;100693.81;6229481;28;20055;-74
2022/11/28 11:14:33;;;;;;;31.38;11.20;;;;;;;6.00;100.00;100692.34;6217701;28;20042;-74
2022/11/28 11:17:36;;;;;;;22.63;11.00;;;;;;;6.02;100.00;100676.78;6215017;28;20048;-74
2022/11/28 11:20:38;;;;;;;25.75;11.15;;;;;;;6.23;100.00;100688.19;6219462;28;20042;-73
2022/11/28 11:23:39;;;;;;;18.40;8.45;;;;;;;6.30;100.00;100689.69;6219261;28;20046;-74
2022/11/28 11:26:43;;;;;;;27.75;13.48;;;;;;;6.44;100.00;100687.47;6219274;28;20055;-74
2022/11/28 11:29:44;;;;;;;25.15;10.25;;;;;;;6.36;100.00;100680.84;6196185;28;20494;-74
2022/11/28 11:32:48;;;;;;;26.77;11.30;;;;;;;6.44;100.00;100678.84;6194976;28;20506;-77
2022/11/28 11:35:49;;;;;;;27.98;13.95;;;;;;;6.51;100.00;100669.97;6178648;28;20530;-77
2022/11/28 11:38:50;;;;;;;19.13;10.70;;;;;;;6.48;100.00;100670.06;6195381;28;20517;-77
2022/11/28 11:42:10;;;;;;;20.88;10.88;;;;;;;6.19;100.00;100658.91;6195619;28;20108;-74
2022/11/28 11:45:40;;;;;;;25.67;12.02;;;;;;;6.33;100.00;100663.66;6199934;28;20037;-74
2022/11/28 11:48:49;;;;;;;21.83;11.77;;;;;;;6.27;100.00;100666.44;6217790;28;20058;-74
2022/11/28 11:51:58;;;;;;;24.58;11.45;;;;;;;6.29;100.00;100666.41;6201139;28;20500;-73
2022/11/28 11:55:11;;;;;;;22.90;10.73;;;;;;;6.22;100.00;100656.25;6199106;28;20050;-78
2022/11/28 11:58:17;;;;;;;26.30;12.25;;;;;;;6.40;100.00;100651.31;6199846;28;20493;-73
2022/11/28 12:01:22;;;;;;;32.30;12.20;;;;;;;6.19;100.00;100647.72;6194359;28;20088;-74
2022/11/28 12:04:36;;;;;;;24.63;9.80;;;;;;;6.29;100.00;100651.69;6195562;28;20129;-77
2022/11/28 12:07:51;;;;;;;24.95;11.55;;;;;;;6.50;100.00;100657.03;6195677;28;20042;-75
2022/11/28 12:11:13;;;;;;;23.42;12.80;;;;;;;6.54;100.00;100646.50;6199638;28;20094;-74
2022/11/28 12:14:20;;;;;;;27.35;11.70;;;;;;;6.41;100.00;100646.09;6218398;28;20161;-74
2022/11/28 12:17:30;;;;;;;23.25;12.10;;;;;;;6.51;100.00;100654.41;6202319;28;20441;-74
2022/11/28 12:20:39;;;;;;;19.17;9.77;;;;;;;6.56;100.00;100654.25;6194386;28;20070;-77
2022/11/28 12:23:49;;;;;;;27.67;10.18;;;;;;;6.41;100.00;100647.84;6214020;28;20080;-78
2022/11/28 12:27:00;;;;;;;26.45;12.45;;;;;;;6.52;100.00;100645.72;6202977;28;20044;-78
2022/11/28 12:30:24;;;;;;;26.98;12.50;;;;;;;6.59;100.00;100643.75;6197606;28;20479;-73
2022/11/28 12:33:52;;;;;;;20.02;10.73;;;;;;;6.54;100.00;100643.06;6299306;27;20069;-78
2022/11/28 12:37:08;;;;;;;23.15;11.70;;;;;;;6.56;100.00;100646.47;6291641;28;20493;-74
2022/11/28 12:40:09;;;;;;;24.65;11.65;;;;;;;6.55;100.00;100645.63;6215322;28;20046;-74
2022/11/28 12:43:16;;;;;;;31.38;12.35;;;;;;;6.47;100.00;100639.03;6200315;28;20057;-74
2022/11/28 12:46:38;;;;;;;21.25;11.20;;;;;;;6.44;100.00;100635.63;6218500;28;20407;-74
2022/11/28 12:50:03;;;;;;;23.42;11.35;;;;;;;6.42;100.00;100634.84;6217531;28;20057;-73
2022/11/28 12:53:13;;;;;;;23.75;12.38;;;;;;;6.37;100.00;100641.91;6217296;28;20470;-78
2022/11/28 12:56:38;;;;;;;19.27;10.75;;;;;;;6.43;100.00;100641.69;6218579;28;20090;-78
2022/11/28 12:59:53;;;;;;;25.45;10.75;;;;;;;6.36;100.00;100637.63;6218839;28;20069;-78
2022/11/28 13:03:06;;;;;;;23.40;12.25;;;;;;;6.29;100.00;100638.72;6217340;28;20058;-78
2022/11/28 13:06:18;;;;;;;27.23;11.75;;;;;;;6.25;100.00;100643.16;6217315;28;20050;-77
2022/11/28 13:09:31;;;;;;;26.58;11.77;;;;;;;6.24;100.00;100640.66;6217347;28;20042;-78
2022/11/28 13:12:44;;;;;;;27.98;11.45;;;;;;;6.29;100.00;100640.50;6218632;28;20387;-78
2022/11/28 13:15:48;;;;;;;32.22;13.52;;;;;;;6.22;100.00;100645.03;6217202;28;20110;-78
2022/11/28 13:18:53;;;;;;;42.35;11.68;;;;;;;6.25;100.00;100632.78;6218339;28;20053;-78
2022/11/28 13:22:00;;;;;;;30.73;13.27;;;;;;;6.24;100.00;100638.91;6217350;28;20042;-77
2022/11/28 13:25:09;;;;;;;38.05;16.75;;;;;;;6.37;100.00;100638.47;6216971;28;20046;-77
2022/11/28 13:28:37;;;;;;;32.65;14.65;;;;;;;6.41;100.00;100635.72;6200741;28;20108;-78
2022/11/28 13:31:58;;;;;;;20.48;10.68;;;;;;;6.42;100.00;100633.97;6217280;28;20050;-78
2022/11/28 13:34:59;;;;;;;29.38;11.30;;;;;;;6.40;100.00;100635.75;6217002;28;20046;-78
2022/11/28 13:38:21;;;;;;;23.95;11.23;;;;;;;6.38;100.00;100646.22;6216927;28;20042;-77
2022/11/28 13:41:42;;;;;;;;;;;;;;;6.22;100.00;100639.84;6217374;28;20485;-78
2022/11/28 13:45:15;;;;;;;25.27;11.07;;;;;;;6.31;100.00;100638.69;6216120;28;19971;-77
2022/11/28 13:48:38;;;;;;;22.88;11.68;;;;;;;6.37;100.00;100628.13;6217972;28;20038;-78
2022/11/28 13:51:39;;;;;;;26.60;12.23;;;;;;;6.42;100.00;100633.97;6216846;28;20046;-78
2022/11/28 13:54:41;;;;;;;32.85;11.70;;;;;;;6.35;100.00;100628.16;6200393;28;20069;-77
2022/11/28 13:57:42;;;;;;;25.65;12.30;;;;;;;6.44;100.00;100625.25;6216625;28;20042;-78
2022/11/28 14:00:58;;;;;;;27.60;12.02;;;;;;;6.49;100.00;100639.81;6200045;28;20061;-78
2022/11/28 14:04:00;;;;;;;22.60;11.70;;;;;;;6.47;100.00;100624.31;6219266;28;20508;-77
2022/11/28 14:07:06;;;;;;;25.75;12.88;;;;;;;6.50;100.00;100637.16;6216467;28;20046;-78
2022/11/28 14:10:24;;;;;;;29.10;13.25;;;;;;;6.43;100.00;100626.16;6196216;28;20042;-77
2022/11/28 14:13:47;;;;;;;40.15;16.60;;;;;;;6.44;100.00;100632.16;6200899;28;20049;-78
2022/11/28 14:17:10;;;;;;;33.22;16.95;;;;;;;6.33;100.00;100637.72;6212114;28;20046;-78